Latest Coastal Weather Observations for Avalon

IDV60701

Issued at 8:41 am EDT Saturday 21 October 2017 (issued every 10 minutes, with the page automatically refreshed every 10 minutes)

About coastal observations | Map of coastal stations | Coastal observations for VIC | Marine services | Other Formats
Station Details ID: 087113 Name: AVALON AIRPORT Lat: -38.03 Lon: 144.48 Height: 10.6 m
Data from the previous 72 hours. | See also: Recent months at Avalon
Date/Time
EDT
Temp
°C
Wind Pressure Rain since
9am
mm
Weather Cloud Vis
km
Sea
Height
m
Swell
Dir  Spd
kts
Gust
kts
hPa Trend Height
m
Period
s
Dir
21/08:30am 11.6 W 9 13 1026.3 - 0.0 - Partly cloudy 10 - - - -
21/08:00am 11.4 W 7 10 1026.2 - 0.0 - Partly cloudy 10 - - - -
21/07:30am 11.1 W 6 8 1026.2 - 0.0 - Cloudy 10 - - - -
21/07:00am 11.0 W 7 9 1026.4 - 0.0 - Cloudy 10 - - - -
21/06:30am 10.8 W 7 10 1026.4 - 0.0 - Cloudy 10 - - - -
21/06:00am 10.7 W 8 10 1026.3 - 0.0 - Cloudy 10 - - - -
21/05:30am 11.0 W 7 11 1026.3 - 0.0 - Cloudy 10 - - - -
21/05:00am 10.9 W 6 9 1026.3 - 0.0 - Cloudy 10 - - - -
21/04:30am 10.8 W 7 9 1026.6 - 0.0 - Cloudy 10 - - - -
21/04:00am 10.8 W 5 6 1026.8 - 0.0 - Cloudy 10 - - - -
21/03:30am 10.7 W 6 9 1027.1 - 0.0 - Cloudy 10 - - - -
21/03:00am 10.6 W 8 9 1027.3 - 0.0 - Cloudy 10 - - - -
21/02:30am 10.5 W 7 9 1027.6 - 0.0 - Cloudy 10 - - - -
21/02:00am 10.6 W 7 9 1027.9 - 0.0 - Cloudy 10 - - - -
21/01:30am 10.8 W 8 10 1028.2 - 0.0 - Cloudy 10 - - - -
21/01:00am 11.0 W 6 9 1028.4 - 0.0 - Cloudy 10 - - - -
21/12:30am 11.6 SW 9 12 1028.7 - 0.0 - Cloudy 10 - - - -
21/12:00am 10.9 W 7 13 1028.8 - 0.0 - Cloudy 10 - - - -
 
Date/Time
EDT
Temp
°C
Wind Pressure Rain since
9am
mm
Weather Cloud Vis
km
Sea
Height
m
Swell
Dir  Spd
kts
Gust
kts
hPa Trend Height
m
Period
s
Dir
20/11:30pm 10.9 W 7 9 1028.9 - 0.0 - Cloudy 10 - - - -
20/11:00pm 11.0 W 7 9 1029.1 - 0.0 - Cloudy 10 - - - -
20/10:30pm 11.9 SW 9 13 1029.3 - 0.0 - Cloudy 10 - - - -
20/10:00pm 12.0 SSW 11 14 1029.4 - 0.0 - Partly cloudy 10 - - - -
20/09:30pm 11.1 SSW 12 15 1029.4 - 0.0 - Cloudy 10 - - - -
20/09:00pm 10.5 SSW 11 16 1029.5 - 0.0 - Cloudy 10 - - - -
20/08:30pm 11.0 SSW 12 17 1029.1 - 0.0 - Partly cloudy 10 - - - -
20/08:00pm 11.2 SSW 14 19 1029.0 - 0.0 - Partly cloudy 10 - - - -
20/07:30pm 11.9 S 16 21 1028.7 - 0.0 - Partly cloudy 10 - - - -
20/07:00pm 12.9 S 16 20 1028.3 - 0.0 - Cloudy 10 - - - -
20/06:30pm 13.3 SSW 17 22 1028.3 - 0.0 - Partly cloudy 10 - - - -
20/06:00pm 14.0 SSW 16 23 1028.2 - 0.0 - Mostly cloudy 10 - - - -
20/05:30pm 13.9 SSW 19 24 1028.0 - 0.0 - Cloudy 10 - - - -
20/05:00pm 15.0 S 19 25 1027.9 - 0.0 - Partly cloudy 10 - - - -
20/04:30pm 16.0 SSW 19 24 1027.8 - 0.0 - - 10 - - - -
20/04:00pm 15.6 S 21 25 1027.9 - 0.0 - - 10 - - - -
20/03:30pm 16.0 S 18 24 1028.0 - 0.0 - - 10 - - - -
20/03:00pm 16.8 S 19 24 1028.1 - 0.0 - Mostly clear 10 - - - -
20/02:30pm 15.7 S 19 24 1028.3 - 0.0 - Partly cloudy 10 - - - -
20/02:00pm 16.5 S 18 22 1028.2 - 0.0 - Partly cloudy 10 - - - -
20/01:30pm 16.6 S 17 23 1028.1 - 0.0 - - 10 - - - -
20/01:00pm 16.3 S 17 22 1028.2 - 0.0 - Partly cloudy 10 - - - -
20/12:30pm 16.4 S 17 22 1028.2 - 0.0 - Partly cloudy 10 - - - -
20/12:00pm 14.6 SSW 18 23 1028.4 - 0.0 - Partly cloudy 10 - - - -
20/11:30am 16.3 SSW 16 24 1028.2 - 0.0 - Partly cloudy 10 - - - -
20/11:00am 14.6 SW 11 15 1028.2 - 0.0 - Partly cloudy 10 - - - -
20/10:30am 14.7 SW 13 19 1028.2 - 0.0 - Partly cloudy 10 - - - -
20/10:00am 13.0 SW 15 20 1028.2 - 0.0 - Partly cloudy 10 - - - -
20/09:30am 13.4 SW 11 15 1027.7 - 0.0 - Partly cloudy 10 - - - -
20/09:00am 13.1 WSW 11 16 1027.3 - 0.4 - Partly cloudy 10 - - - -
20/08:30am 11.9 W 8 11 1027.1 - 0.4 - - 10 - - - -
20/08:00am 10.4 W 8 11 1026.8 - 0.4 - - 10 - - - -
20/07:30am 8.6 W 8 9 1026.5 - 0.4 - - 10 - - - -
20/07:00am 8.3 W 7 9 1026.1 - 0.4 - Partly cloudy 10 - - - -
20/06:30am 8.8 W 9 10 1025.6 - 0.4 - Cloudy 10 - - - -
20/06:00am 8.1 W 5 7 1025.1 - 0.4 - Partly cloudy 10 - - - -
20/05:30am 8.5 W 8 9 1024.7 - 0.4 - Partly cloudy 10 - - - -
20/05:00am 8.7 W 8 10 1024.3 - 0.4 - - 10 - - - -
20/04:30am 8.9 WNW 8 10 1024.2 - 0.4 - Partly cloudy 10 - - - -
20/04:00am 9.7 W 6 9 1024.0 - 0.4 - Partly cloudy 10 - - - -
20/03:30am 10.3 WSW 7 9 1023.9 - 0.4 - Partly cloudy 10 - - - -
20/03:14am 10.3 W 9 14 1023.8 - 0.4 - Partly cloudy 10 - - - -
20/03:00am 10.6 W 14 25 1023.9 - 0.4 Drizzle Cloudy 6 - - - -
20/02:58am 10.8 W 13 25 1024.0 - 0.4 - Partly cloudy 8 - - - -
20/02:55am 11.0 W 12 25 1024.0 - 0.4 - Partly cloudy 10 - - - -
20/02:30am 9.6 WNW 9 12 1023.6 - 0.4 - - 10 - - - -
20/02:00am 8.7 WNW 1 4 1023.8 - 0.4 - Partly cloudy 10 - - - -
20/01:30am 8.2 WNW 2 6 1023.9 - 0.4 - - 10 - - - -
20/01:00am 8.7 NNW 4 5 1023.9 - 0.4 - - 10 - - - -
20/12:30am 9.7 NW 6 8 1024.0 - 0.4 - - 10 - - - -
20/12:00am 9.7 NNW 7 8 1024.1 - 0.4 - - 10 - - - -
 
Date/Time
EDT
Temp
°C
Wind Pressure Rain since
9am
mm
Weather Cloud Vis
km
Sea
Height
m
Swell
Dir  Spd
kts
Gust
kts
hPa Trend Height
m
Period
s
Dir
19/11:30pm 10.0 NW 5 6 1024.0 - 0.4 - - 10 - - - -
19/11:00pm 10.4 WNW 6 7 1024.0 - 0.4 - - 10 - - - -
19/10:30pm 11.7 WNW 7 8 1024.0 - 0.4 - - 10 - - - -
19/10:00pm 12.3 WNW 6 7 1023.7 - 0.4 - - 10 - - - -
19/09:30pm 12.8 W 6 8 1023.4 - 0.4 - - 10 - - - -
19/09:00pm 13.6 WSW 6 8 1023.0 - 0.4 - Mostly cloudy 10 - - - -
19/08:30pm 14.2 WSW 11 13 1022.2 - 0.4 - - 10 - - - -
19/08:00pm 14.8 W 13 19 1021.7 - 0.4 - - 10 - - - -
19/07:30pm 15.7 WSW 9 14 1020.7 - 0.4 - - 10 - - - -
19/07:00pm 16.3 W 12 16 1019.8 - 0.4 - - 10 - - - -
19/06:30pm 16.8 WSW 17 22 1019.1 - 0.4 - Partly cloudy 10 - - - -
19/06:18pm 17.0 WSW 17 27 1018.4 - 0.4 - Partly cloudy 10 - - - -
19/06:00pm 17.5 WSW 17 24 1018.2 - 0.4 - Cloudy 10 - - - -
19/05:30pm 18.3 WSW 19 31 1017.7 - 0.4 - Partly cloudy 10 - - - -
19/05:26pm 18.3 WSW 17 27 1017.5 - 0.4 - Cloudy 10 - - - -
19/05:00pm 18.3 WSW 18 25 1017.3 - 0.4 - Partly cloudy 10 - - - -
19/04:30pm 19.8 WSW 22 29 1016.9 - 0.4 - Partly cloudy 10 - - - -
19/04:12pm 20.5 WSW 21 31 1016.8 - 0.4 - Partly cloudy 10 - - - -
19/04:00pm 20.9 WSW 24 32 1016.9 - 0.4 - Partly cloudy 10 - - - -
19/03:38pm 22.1 WSW 24 34 1016.3 - 0.4 - Partly cloudy 10 - - - -
19/03:30pm 23.0 W 23 31 1015.9 - 0.4 - Partly cloudy 10 - - - -
19/03:22pm 25.3 W 22 29 1015.6 - 0.4 - Partly cloudy 10 - - - -
19/03:00pm 25.4 W 15 27 1015.9 - 0.4 - Cloudy 10 - - - -
19/02:30pm 23.7 W 13 18 1015.8 - 0.4 - Partly cloudy 10 - - - -
19/02:00pm 22.8 SSE 7 11 1015.8 - 0.4 - Partly cloudy 10 - - - -
19/01:30pm 22.4 SSE 6 9 1015.6 - 0.4 - Partly cloudy 10 - - - -
19/01:00pm 22.2 ENE 9 11 1015.5 - 0.4 - Partly cloudy 10 - - - -
19/12:30pm 21.6 NE 10 14 1015.5 - 0.4 - Partly cloudy 10 - - - -
19/12:00pm 20.2 ENE 10 14 1015.8 - 0.4 Rain Cloudy 10 - - - -
19/11:30am 20.4 NE 6 7 1015.6 - 0.4 - Partly cloudy 10 - - - -
19/11:00am 20.4 NNE 5 6 1016.0 - 0.4 - Partly cloudy 10 - - - -
19/10:30am 18.8 E 6 7 1015.7 - 0.4 - Partly cloudy 10 - - - -
19/10:00am 17.8 SE 4 6 1016.4 - 0.4 - Partly cloudy 10 - - - -
19/09:30am 18.5 W 6 8 1016.5 - 0.2 - Partly cloudy 10 - - - -
19/09:00am 18.4 WNW 5 6 1016.2 - 3.0 Rain Mostly cloudy 8 - - - -
19/08:30am 18.2 WSW 10 14 1016.2 - 1.6 - Partly cloudy 10 - - - -
19/08:16am 18.0 SW 9 11 1016.0 - 1.0 - Partly cloudy 10 - - - -
19/08:00am 19.5 W 7 11 1015.6 - 0.2 - Partly cloudy 2 - - - -
19/07:57am 20.0 W 7 8 1015.5 - 0.0 - Partly cloudy 2 - - - -
19/07:30am 20.7 W 7 9 1014.8 - 0.0 - Partly cloudy 10 - - - -
19/07:00am 20.8 NW 9 13 1014.7 - 0.0 - Partly cloudy 10 - - - -
19/06:30am 21.1 WNW 11 14 1014.4 - 0.0 - Partly cloudy 10 - - - -
19/06:00am 22.1 WNW 8 11 1013.6 - 0.0 Rain Cloudy 10 - - - -
19/05:30am 22.8 NW 12 17 1013.3 - 0.0 - Partly cloudy 10 - - - -
19/05:19am 22.5 NW 14 20 1013.4 - 0.0 - Cloudy 10 - - - -
19/05:00am 23.1 NNW 22 32 1013.2 - 0.0 - Cloudy 10 - - - -
19/04:41am 25.5 N 17 31 1012.9 - 0.0 - Partly cloudy 10 - - - -
19/04:30am 24.8 N 8 18 1013.0 - 0.0 - Partly cloudy 10 - - - -
19/04:00am 24.1 NNE 9 12 1012.9 - 0.0 - Partly cloudy 10 - - - -
19/03:30am 24.2 NNE 9 13 1013.2 - 0.0 - - 10 - - - -
19/03:00am 21.3 ENE 6 8 1013.8 - 0.0 - Cloudy 10 - - - -
19/02:30am 20.6 NE 6 8 1013.9 - 0.0 - - 10 - - - -
19/02:00am 20.8 NNE 9 11 1014.2 - 0.0 - - 10 - - - -
19/01:30am 19.9 NE 9 11 1014.7 - 0.0 - - 10 - - - -
19/01:00am 20.5 NE 9 12 1015.2 - 0.0 - - 10 - - - -
19/12:30am 20.5 NNE 9 12 1015.6 - 0.0 - - 10 - - - -
19/12:00am 20.3 NE 9 11 1015.8 - 0.0 - - 10 - - - -
 
Date/Time
EDT
Temp
°C
Wind Pressure Rain since
9am
mm
Weather Cloud Vis
km
Sea
Height
m
Swell
Dir  Spd
kts
Gust
kts
hPa Trend Height
m
Period
s
Dir
18/11:30pm 21.7 NNE 11 14 1016.3 - 0.0 - - 10 - - - -
18/11:00pm 22.1 NNE 11 13 1016.8 - 0.0 - - 10 - - - -
18/10:30pm 22.9 NNE 11 15 1017.1 - 0.0 - - 10 - - - -
18/10:00pm 23.6 NNE 11 13 1017.4 - 0.0 - - 10 - - - -
18/09:30pm 24.1 NNE 11 14 1017.5 - 0.0 - - 10 - - - -
18/09:00pm 24.7 NNE 11 13 1017.3 - 0.0 - - 10 - - - -
18/08:30pm 26.0 NNE 11 14 1016.9 - 0.0 - - 10 - - - -
18/08:00pm 26.2 NNE 9 11 1016.7 - 0.0 - - 10 - - - -
18/07:30pm 27.8 NNE 13 17 1016.4 - 0.0 - - 10 - - - -
18/07:00pm 28.8 NNE 15 21 1016.0 - 0.0 - - 10 - - - -
18/06:30pm 29.7 NNE 15 20 1015.9 - 0.0 - - 10 - - - -
18/06:00pm 30.9 N 13 18 1015.8 - 0.0 - - 10 - - - -
18/05:30pm 31.2 N 15 21 1015.9 - 0.0 - - 10 - - - -
18/05:00pm 31.5 N 15 21 1015.9 - 0.0 - - 10 - - - -
18/04:30pm 31.6 N 17 24 1016.2 - 0.0 - - 10 - - - -
18/04:00pm 32.2 N 13 19 1016.4 - 0.0 - - 10 - - - -
18/03:30pm 32.3 N 15 23 1016.7 - 0.0 - - 10 - - - -
18/03:00pm 32.8 N 16 21 1017.2 - 0.0 - - 10 - - - -
18/02:30pm 32.2 N 16 23 1017.6 - 0.0 - - 10 - - - -
18/02:00pm 32.5 N 15 22 1018.0 - 0.0 - - 10 - - - -
18/01:30pm 32.3 N 16 24 1018.4 - 0.0 - - 10 - - - -
18/01:00pm 32.6 N 15 19 1018.7 - 0.0 - - 10 - - - -
18/12:30pm 31.9 N 15 19 1019.0 - 0.0 - - 10 - - - -
18/12:00pm 31.0 N 15 21 1019.5 - 0.0 - - 10 - - - -
18/11:30am 31.2 N 16 22 1019.8 - 0.0 - - 10 - - - -
18/11:00am 29.4 N 14 19 1020.2 - 0.0 - - 10 - - - -
18/10:30am 28.5 N 16 23 1020.3 - 0.0 - - 10 - - - -
18/10:00am 27.1 N 14 20 1020.7 - 0.0 - - 10 - - - -
18/09:30am 25.5 N 14 20 1020.9 - 0.0 - - 10 - - - -
18/09:00am 24.0 NNE 15 19 1020.8 - 0.0 - - 10 - - - -

Other Formats:

Comma delimited format used in spreadsheet applications
http://www.bom.gov.au/fwo/IDV60701/IDV60701.94854.axf

JavaScript Object Notation format (JSON) in row-major order
http://www.bom.gov.au/fwo/IDV60701/IDV60701.94854.json